createdAt,value
2019-05-15T00:00:55.625Z,7.66
2019-05-15T00:03:28.792Z,7.64
2019-05-15T00:06:01.322Z,7.64
2019-05-15T00:08:34.904Z,7.56
2019-05-15T00:11:08.271Z,7.57
2019-05-15T00:13:39.721Z,7.55
2019-05-15T00:16:13.775Z,7.59
2019-05-15T00:18:45.093Z,7.55
2019-05-15T00:21:18.005Z,7.46
2019-05-15T00:23:51.264Z,7.45
2019-05-15T00:26:22.738Z,7.42
2019-05-15T00:28:54.288Z,7.47
2019-05-15T00:31:28.998Z,7.40
2019-05-15T00:33:59.787Z,7.36
2019-05-15T00:36:31.269Z,7.37
2019-05-15T00:39:03.492Z,7.35
2019-05-15T00:41:49.915Z,7.33
2019-05-15T00:44:09.219Z,7.29
2019-05-15T00:46:40.776Z,7.28
2019-05-15T00:49:12.304Z,7.22
2019-05-15T00:51:43.828Z,7.23
2019-05-15T00:54:16.202Z,7.26
2019-05-15T00:56:48.471Z,7.29
2019-05-15T00:59:26.460Z,7.19
2019-05-15T01:01:53.327Z,7.15
2019-05-15T01:04:24.737Z,7.17
2019-05-15T01:06:58.446Z,7.12
2019-05-15T01:09:29.552Z,7.17
2019-05-15T01:12:01.197Z,7.14
2019-05-15T01:14:32.801Z,7.08
2019-05-15T01:17:09.795Z,7.07
2019-05-15T01:19:43.099Z,7.01
2019-05-15T01:22:19.547Z,6.96
2019-05-15T01:24:48.578Z,7.04
2019-05-15T01:27:22.326Z,6.97
2019-05-15T01:29:58.155Z,6.91
2019-05-15T01:32:31.474Z,6.84
2019-05-15T01:35:04.864Z,6.83
2019-05-15T01:37:38.782Z,6.82
2019-05-15T01:40:13.559Z,6.76
2019-05-15T01:42:45.470Z,6.78
2019-05-15T01:45:18.907Z,6.76
2019-05-15T01:47:50.902Z,6.71
2019-05-15T01:50:22.658Z,6.70
2019-05-15T01:53:00.358Z,6.72
2019-05-15T01:55:41.205Z,6.70
2019-05-15T01:58:12.765Z,6.70
2019-05-15T02:00:44.617Z,6.71
2019-05-15T02:03:18.385Z,6.68
2019-05-15T02:05:52.153Z,6.64
2019-05-15T02:08:25.356Z,6.69
2019-05-15T02:11:01.217Z,6.77
2019-05-15T02:13:34.502Z,6.72
2019-05-15T02:16:12.172Z,6.68
2019-05-15T02:19:00.606Z,6.61
2019-05-15T02:21:39.564Z,6.60
2019-05-15T02:27:34.421Z,6.44
2019-05-15T02:30:18.016Z,6.37
2019-05-15T02:32:41.238Z,6.37
2019-05-15T02:35:18.390Z,6.46
2019-05-15T02:37:49.063Z,6.37
2019-05-15T02:40:29.769Z,6.35
2019-05-15T02:43:01.402Z,6.28
2019-05-15T02:45:36.641Z,6.24
2019-05-15T02:48:08.946Z,6.20
2019-05-15T02:50:39.879Z,6.23
2019-05-15T02:53:23.976Z,6.17
2019-05-15T02:55:55.444Z,6.15
2019-05-15T02:58:29.193Z,6.14
2019-05-15T03:01:00.223Z,6.11
2019-05-15T03:03:32.092Z,6.02
2019-05-15T03:06:03.626Z,5.98
2019-05-15T03:08:35.089Z,6.07
2019-05-15T03:11:09.518Z,6.02
2019-05-15T03:13:40.023Z,5.99
2019-05-15T03:16:13.273Z,5.94
2019-05-15T03:18:44.992Z,5.88
2019-05-15T03:21:18.814Z,5.85
2019-05-15T03:23:50.609Z,5.83
2019-05-15T03:26:35.526Z,5.81
2019-05-15T03:29:10.403Z,5.85
2019-05-15T03:31:59.151Z,5.75
2019-05-15T03:34:23.275Z,5.71
2019-05-15T03:36:52.925Z,5.66
2019-05-15T03:39:22.663Z,5.62
2019-05-15T03:41:58.745Z,5.62
2019-05-15T03:44:39.093Z,5.55
2019-05-15T03:47:09.901Z,5.53
2019-05-15T03:49:49.120Z,5.52
2019-05-15T03:52:22.978Z,5.52
2019-05-15T03:54:54.777Z,5.48
2019-05-15T03:57:39.754Z,5.46
2019-05-15T04:00:14.319Z,5.47
2019-05-15T04:06:29.902Z,5.49
2019-05-15T04:08:58.663Z,5.50
2019-05-15T04:11:30.341Z,5.54
2019-05-15T04:14:02.165Z,5.55
2019-05-15T04:16:54.295Z,5.58
2019-05-15T04:19:45.633Z,5.61
2019-05-15T04:22:23.048Z,5.58
2019-05-15T04:25:19.352Z,5.55
2019-05-15T04:28:09.676Z,5.55
2019-05-15T04:31:21.187Z,5.55
2019-05-15T04:37:55.620Z,5.51
2019-05-15T04:40:34.992Z,5.55
2019-05-15T04:43:15.451Z,5.51
2019-05-15T05:11:00.807Z,6.24
2019-05-15T05:13:39.899Z,6.26
2019-05-15T05:16:19.272Z,6.27
2019-05-15T05:19:09.232Z,6.39
2019-05-15T05:21:52.194Z,6.42
2019-05-15T05:25:27.982Z,6.51
2019-05-15T05:28:20.879Z,6.63
2019-05-15T05:34:14.425Z,6.82
2019-05-15T05:37:31.134Z,6.96
2019-05-15T05:45:04.785Z,7.11
2019-05-15T05:47:21.778Z,7.13
2019-05-15T05:49:50.787Z,7.15
2019-05-15T05:56:03.031Z,7.44
2019-05-15T06:02:24.370Z,7.57
2019-05-15T06:06:09.436Z,7.70
2019-05-15T06:12:03.997Z,7.87
2019-05-15T12:13:59.436Z,17.90
2019-05-15T12:16:36.404Z,17.90
2019-05-15T12:19:12.681Z,18.44
2019-05-15T12:21:41.280Z,18.43
2019-05-15T12:24:12.681Z,18.30
2019-05-15T12:26:44.029Z,18.50
2019-05-15T12:29:15.303Z,18.54
2019-05-15T12:31:49.609Z,18.06
2019-05-15T12:34:20.821Z,18.00
2019-05-15T12:39:24.793Z,18.18
2019-05-15T12:39:30.407Z,18.23
2019-05-15T13:00:12.003Z,18.49
2019-05-15T13:02:43.330Z,18.80
2019-05-15T13:05:14.996Z,18.58
2019-05-15T13:07:48.342Z,18.76
2019-05-15T13:10:19.641Z,19.09
2019-05-15T13:13:00.579Z,18.50
2019-05-15T13:15:24.273Z,18.17
2019-05-15T13:17:59.475Z,18.59
2019-05-15T13:20:29.007Z,18.76
2019-05-15T13:23:00.432Z,19.08
2019-05-15T13:25:31.880Z,19.25
2019-05-15T13:28:03.251Z,19.17
2019-05-15T13:30:37.838Z,19.13
2019-05-15T13:33:10.114Z,19.44
2019-05-15T13:35:41.776Z,18.55
2019-05-15T13:38:13.050Z,19.20
2019-05-15T13:40:44.502Z,18.94
2019-05-15T13:43:15.867Z,18.91
2019-05-15T13:45:49.064Z,19.25
2019-05-15T13:48:20.532Z,19.52
2019-05-15T13:50:52.700Z,19.10
2019-05-15T13:53:24.188Z,19.36
2019-05-15T13:55:56.084Z,19.65
2019-05-15T13:58:28.369Z,19.62
2019-05-15T14:01:00.022Z,19.76
2019-05-15T14:03:31.610Z,19.63
2019-05-15T14:06:10.231Z,19.56
2019-05-15T14:08:41.870Z,19.37
2019-05-15T14:11:13.163Z,19.17
2019-05-15T14:13:44.618Z,19.38
2019-05-15T14:16:15.985Z,19.19
2019-05-15T14:18:47.964Z,19.27
2019-05-15T14:21:19.607Z,19.99
2019-05-15T14:23:52.615Z,20.10
2019-05-15T14:26:23.987Z,20.17
2019-05-15T14:28:55.728Z,20.37
2019-05-15T14:31:40.487Z,20.25
2019-05-15T14:34:11.892Z,20.49
2019-05-15T14:36:43.674Z,20.54
2019-05-15T14:39:15.072Z,20.12
2019-05-15T14:41:49.119Z,20.32
2019-05-15T14:44:21.669Z,20.18
2019-05-15T14:46:53.189Z,19.07
2019-05-15T14:49:24.809Z,19.12
2019-05-15T14:52:05.796Z,19.54
2019-05-15T14:54:29.463Z,20.14
2019-05-15T14:57:04.630Z,19.89
2019-05-15T14:59:36.111Z,19.90
2019-05-15T15:02:09.511Z,20.02
2019-05-15T15:04:40.919Z,20.00
2019-05-15T15:07:12.625Z,20.61
2019-05-15T15:09:44.132Z,21.07
2019-05-15T15:12:15.501Z,21.31
2019-05-15T15:14:48.552Z,21.04
2019-05-15T15:17:20.143Z,20.42
2019-05-15T15:19:52.701Z,20.22
2019-05-15T15:22:25.377Z,20.36
2019-05-15T15:24:59.673Z,19.77
2019-05-15T15:27:30.134Z,19.84
2019-05-15T15:30:01.598Z,20.24
2019-05-15T15:32:48.829Z,19.78
2019-05-15T15:35:19.350Z,20.36
2019-05-15T15:37:50.950Z,20.11
2019-05-15T15:40:22.567Z,20.16
2019-05-15T15:42:54.215Z,20.68
2019-05-15T15:45:28.338Z,20.95
2019-05-15T15:47:59.992Z,21.35
2019-05-15T15:50:32.669Z,21.07
2019-05-15T15:53:04.294Z,20.21
2019-05-15T15:55:38.847Z,19.91
2019-05-15T15:58:10.290Z,19.68
2019-05-15T16:00:42.168Z,19.78
2019-05-15T16:03:13.766Z,19.97
2019-05-15T16:05:48.874Z,20.06
2019-05-15T16:08:20.427Z,19.75
2019-05-15T16:10:51.932Z,19.52
2019-05-15T16:13:23.457Z,19.37
2019-05-15T16:15:54.838Z,19.48
2019-05-15T16:18:28.726Z,19.74
2019-05-15T16:21:00.146Z,20.14
2019-05-15T16:23:31.535Z,20.73
2019-05-15T16:26:02.979Z,20.63
2019-05-15T16:28:34.390Z,20.21
2019-05-15T16:31:07.868Z,19.59
2019-05-15T16:33:39.136Z,19.04
2019-05-15T16:36:10.543Z,18.61
2019-05-15T16:38:41.982Z,19.14
2019-05-15T16:41:13.291Z,19.49
2019-05-15T16:43:44.579Z,19.72
2019-05-15T16:46:15.965Z,19.23
2019-05-15T16:48:49.529Z,18.80
2019-05-15T16:51:22.615Z,18.60
2019-05-15T16:53:54.155Z,18.82
2019-05-15T16:56:28.858Z,18.54
2019-05-15T16:59:01.973Z,19.27
2019-05-15T17:01:33.313Z,19.26
2019-05-15T17:04:08.719Z,19.45
2019-05-15T17:06:40.137Z,19.02
2019-05-15T17:09:21.219Z,18.71
2019-05-15T17:11:49.171Z,18.36
2019-05-15T17:14:21.004Z,18.19
2019-05-15T17:16:58.702Z,18.00
2019-05-15T17:19:29.943Z,17.90
2019-05-15T17:22:01.468Z,17.55
2019-05-15T17:24:34.886Z,17.52
2019-05-15T17:27:14.656Z,17.43
2019-05-15T17:29:49.186Z,17.40
2019-05-15T17:32:22.370Z,17.15
2019-05-15T17:34:53.986Z,17.11
2019-05-15T17:37:28.700Z,16.82
2019-05-15T17:40:02.128Z,16.89
2019-05-15T17:42:38.827Z,16.99
2019-05-15T17:45:13.209Z,16.82
2019-05-15T17:47:48.791Z,16.55
2019-05-15T17:50:21.826Z,16.64
2019-05-15T17:52:54.782Z,16.70
2019-05-15T17:55:29.100Z,16.66
2019-05-15T17:58:07.080Z,16.48
2019-05-15T18:00:40.495Z,16.39
2019-05-15T18:03:12.066Z,16.29
2019-05-15T18:05:48.552Z,16.05
2019-05-15T18:08:20.088Z,15.90
2019-05-15T18:17:59.522Z,15.32
2019-05-15T18:34:19.370Z,14.68
2019-05-15T18:40:27.688Z,14.34
2019-05-15T18:43:30.841Z,14.28
2019-05-15T18:46:09.131Z,14.17
2019-05-15T18:48:51.033Z,14.06
2019-05-15T18:51:28.632Z,13.98
2019-05-15T18:54:08.198Z,13.91
2019-05-15T18:56:41.411Z,13.80
2019-05-15T18:59:14.600Z,13.71
2019-05-15T19:01:47.979Z,13.64
2019-05-15T19:04:21.613Z,13.60
2019-05-15T19:06:54.394Z,13.58
2019-05-15T19:09:28.075Z,13.40
2019-05-15T19:12:03.787Z,13.39
2019-05-15T19:14:37.037Z,13.37
2019-05-15T19:17:11.046Z,13.37
2019-05-15T19:19:42.563Z,13.20
2019-05-15T19:22:15.002Z,13.17
2019-05-15T19:24:48.498Z,13.07
2019-05-15T19:27:20.336Z,13.05
2019-05-15T19:29:52.915Z,13.01
2019-05-15T19:32:24.587Z,12.97
2019-05-15T19:34:56.047Z,12.85
2019-05-15T19:37:33.787Z,12.79
2019-05-15T19:40:08.557Z,12.76
2019-05-15T19:42:40.173Z,12.67
2019-05-15T19:45:13.515Z,12.61
2019-05-15T19:50:29.109Z,12.53
2019-05-15T19:54:40.981Z,12.52
2019-05-15T19:57:25.017Z,12.42
2019-05-15T20:00:28.677Z,12.37
2019-05-15T20:03:08.399Z,12.33
2019-05-15T20:07:35.021Z,12.24
2019-05-15T20:11:49.744Z,12.11
2019-05-15T20:14:40.846Z,12.01
2019-05-15T20:17:28.516Z,11.97
2019-05-15T20:20:00.303Z,11.95
2019-05-15T20:22:37.572Z,12.00
2019-05-15T20:28:43.345Z,12.16
2019-05-15T20:31:22.308Z,12.17
2019-05-15T20:34:05.829Z,12.13
2019-05-15T20:36:39.085Z,12.10
2019-05-15T20:39:15.347Z,12.11
2019-05-15T20:41:48.811Z,11.92
2019-05-15T20:44:27.242Z,11.74
2019-05-15T20:46:59.073Z,11.66
2019-05-15T20:49:30.806Z,11.58
2019-05-15T20:52:02.303Z,11.55
2019-05-15T20:54:33.862Z,11.56
2019-05-15T20:57:05.260Z,11.48
2019-05-15T20:59:38.608Z,11.42
2019-05-15T21:02:09.701Z,11.41
2019-05-15T21:04:41.114Z,11.42
2019-05-15T21:07:12.561Z,11.31
2019-05-15T21:09:43.988Z,11.23
2019-05-15T21:12:17.771Z,11.17
2019-05-15T21:14:48.883Z,11.09
2019-05-15T21:17:20.589Z,11.08
2019-05-15T21:19:51.987Z,11.05
2019-05-15T21:22:23.311Z,11.03
2019-05-15T21:24:54.660Z,11.01
2019-05-15T21:27:31.817Z,10.99
2019-05-15T21:29:59.439Z,10.99
2019-05-15T21:32:30.946Z,10.98
2019-05-15T21:35:02.556Z,10.97
2019-05-15T21:37:34.287Z,10.90
2019-05-15T21:40:09.096Z,10.94
2019-05-15T21:42:41.819Z,10.94
2019-05-15T21:45:14.642Z,10.94
2019-05-15T21:47:46.549Z,10.93
2019-05-15T21:50:19.409Z,10.91
2019-05-15T21:52:51.096Z,10.89
2019-05-15T21:55:25.533Z,10.88
2019-05-15T21:57:57.730Z,10.90
2019-05-15T22:00:38.209Z,10.79
2019-05-15T22:03:10.450Z,10.81
2019-05-15T22:05:42.243Z,10.90
2019-05-15T22:08:13.911Z,10.96
2019-05-15T22:10:45.504Z,10.88
2019-05-15T22:13:17.130Z,10.79
2019-05-15T22:15:50.141Z,10.73
2019-05-15T22:18:21.862Z,10.73
2019-05-15T22:20:53.550Z,10.76
2019-05-15T22:23:27.746Z,10.70
2019-05-15T22:26:00.245Z,10.65
2019-05-15T22:28:31.931Z,10.60
2019-05-15T22:31:03.507Z,10.64
2019-05-15T22:33:35.362Z,10.57
2019-05-15T22:36:08.378Z,10.46
2019-05-15T22:38:40.961Z,10.43
2019-05-15T22:41:15.854Z,10.46
2019-05-15T22:43:49.064Z,10.51
2019-05-15T22:46:20.807Z,10.40
2019-05-15T22:48:52.310Z,10.48
2019-05-15T22:51:23.863Z,10.36
2019-05-15T22:53:58.040Z,10.27
2019-05-15T22:56:29.778Z,10.23
2019-05-15T22:59:01.446Z,10.17
2019-05-15T23:01:45.624Z,10.15
2019-05-15T23:04:20.466Z,10.15
2019-05-15T23:06:55.914Z,10.05
2019-05-15T23:09:29.940Z,10.00
2019-05-15T23:12:01.290Z,9.94
2019-05-15T23:14:34.193Z,9.84
2019-05-15T23:17:08.197Z,9.84
2019-05-15T23:19:40.878Z,9.71
2019-05-15T23:22:12.429Z,9.57
2019-05-15T23:24:43.979Z,9.44
2019-05-15T23:27:17.994Z,9.34
2019-05-15T23:29:51.290Z,9.33
2019-05-15T23:32:23.015Z,9.29
2019-05-15T23:34:54.400Z,9.45
2019-05-15T23:37:27.945Z,9.51
2019-05-15T23:39:59.113Z,9.54
2019-05-15T23:42:30.355Z,9.46
2019-05-15T23:45:01.862Z,9.39
2019-05-15T23:47:33.185Z,9.35
2019-05-15T23:50:05.354Z,9.34
2019-05-15T23:52:38.516Z,9.16
2019-05-15T23:55:10.067Z,9.09
2019-05-15T23:57:41.446Z,8.93
